Manheim, PA (17545)

1:30 AM EDT on July 29, 2016 (GMT -0400)
375 Fairview Road | | Change Station

Elev 528 ft 40.15 °N, 76.44 °W | Updated 8 minutes ago

Light Rain
Light Rain Mist
71.6 °F
Feels Like 71.6 °F
N
1.7
Wind Variable Wind from North

Today
High -- | Low -- °F
--% Chance of Precip.
Yesterday
High -- | Low -- °F
Precip. -- in
Pressure 29.88 in
Visibility 6.0 miles
Clouds Overcast 9000 ft
Dew Point 71 °F
Humidity 98%
Rainfall 0.06 in
Snow Depth Not available.
6:01 AM 8:22 PM
Waning Crescent, 25% visible
METAR KLNS 290453Z AUTO 32004KT 6SM -RA BR OVC090 22/22 A2988 RMK AO2 RAB09 SLP116 P0001 T02220217 403060194
Pressure 29.88 in
Visibility 6.0 miles
Clouds Overcast 9000 ft
Dew Point 71 °F
Humidity 98%
Rainfall 0.06 in
Snow Depth Not available.
6:01 AM 8:22 PM
Waning Crescent, 25% visible
METAR KLNS 290453Z AUTO 32004KT 6SM -RA BR OVC090 22/22 A2988 RMK AO2 RAB09 SLP116 P0001 T02220217 403060194

10-Day Weather Forecast

Almanac

Astronomy

Jul. 29, 2016 Rise Set
Actual Time
Civil Twilight
Nautical Twilight
Astronomical Twilight
Moon
Length of Visible Light
Length of Day
Tomorrow will be .
, % of the Moon is Illuminated

Today's Extremes

State Highs State Lows

Community

WunderPhotos

Upload Photos

1,928,297 photos uploaded!

WunderBlog® & News

Nearby

Air Quality

  Air Quality AQ Index Pollutant
Not available.

Snow Depth

Station Depth Elevation

Earthquake Activity

City Distance Mag. Time & Date
Minimum magnitude displayed is 2.5.

Coastal Water Temperatures

Place Temperature

Stations

Nearby Weather Stations

Station Location Temp. Windchill Dew Point Humidity Wind Precip. Elev Updated Type
                   

Watches & Warnings

There are currently no watches in effect.